Time;durP1;ratioP1;P1;durP2;ratioP2;P2;SDS_P1;SDS_P2;PMS_P1;PMS_P2;Temp;Humidity;BMP_temperature;BMP_pressure;BME280_temperature;BME280_humidity;BME280_pressure;Samples;Min_cycle;Max_cycle;Signal;HPM_P1;HPM_P2
2023/01/12 00:01:38;;;;;;;2.03;0.93;;;;;;;2.66;92.73;94812.94;5116213;28;20872;-77
2023/01/12 00:04:05;;;;;;;1.73;1.45;;;;;;;2.57;92.86;94803.88;5115218;27;20611;-79
2023/01/12 00:06:32;;;;;;;3.00;1.55;;;;;;;2.62;92.77;94808.38;5124127;27;20197;-77
2023/01/12 00:09:02;;;;;;;2.05;1.13;;;;;;;2.62;92.46;94811.88;5127454;27;20204;-77
2023/01/12 00:11:29;;;;;;;3.78;1.52;;;;;;;2.55;93.12;94806.03;5133276;27;20208;-77
2023/01/12 00:13:56;;;;;;;3.92;1.77;;;;;;;2.70;92.99;94816.66;5133341;27;20204;-77
2023/01/12 00:16:37;;;;;;;1.63;1.33;;;;;;;2.57;92.45;94814.56;5123700;27;20254;-77
2023/01/12 00:19:09;;;;;;;5.57;1.30;;;;;;;2.57;92.72;94827.94;5131741;27;20311;-77
2023/01/12 00:21:48;;;;;;;2.67;1.85;;;;;;;2.47;92.62;94819.94;5135782;27;20228;-76
2023/01/12 00:24:16;;;;;;;1.85;0.98;;;;;;;2.49;92.54;94825.81;5132370;27;20216;-77
2023/01/12 00:26:44;;;;;;;3.42;2.00;;;;;;;2.43;93.17;94816.22;5125217;27;20289;-78
2023/01/12 00:29:12;;;;;;;2.25;1.38;;;;;;;2.56;93.12;94829.00;5131419;27;20205;-77
2023/01/12 00:31:39;;;;;;;1.08;0.93;;;;;;;2.58;92.53;94824.19;5114277;27;20209;-77
2023/01/12 00:34:07;;;;;;;2.50;1.77;;;;;;;2.53;92.67;94826.06;5124844;27;20278;-77
2023/01/12 00:36:34;;;;;;;1.20;0.82;;;;;;;2.55;92.73;94826.59;5113790;27;20831;-78
2023/01/12 00:39:01;;;;;;;3.72;1.65;;;;;;;2.45;92.95;94830.13;5132834;27;20595;-76
2023/01/12 00:46:55;;;;;;;2.55;1.42;;;;;;;2.69;92.11;94824.97;5120057;27;20749;-78
2023/01/12 00:49:24;;;;;;;1.27;1.17;;;;;;;2.69;91.42;94825.75;5119902;27;20227;-78
2023/01/12 00:51:50;;;;;;;1.30;0.75;;;;;;;2.76;91.38;94815.56;5132547;27;20212;-78
2023/01/12 00:54:17;;;;;;;3.50;1.27;;;;;;;2.73;91.06;94821.44;5132021;27;20208;-78
2023/01/12 00:56:47;;;;;;;2.38;1.23;;;;;;;2.74;91.58;94812.34;5131715;27;20209;-78
2023/01/12 00:59:16;;;;;;;1.13;0.65;;;;;;;2.63;91.45;94794.75;5118816;27;20732;-76
2023/01/12 01:01:43;;;;;;;3.90;2.00;;;;;;;2.66;91.80;94812.94;5132208;27;20609;-77
2023/01/12 01:04:09;;;;;;;1.88;1.20;;;;;;;2.65;91.61;94814.00;5118455;27;20233;-77
2023/01/12 01:06:38;;;;;;;2.20;1.25;;;;;;;2.64;91.92;94828.44;5122924;27;20285;-77
2023/01/12 01:09:06;;;;;;;1.52;1.15;;;;;;;2.69;91.68;94828.44;5128616;27;20329;-77
2023/01/12 01:11:33;;;;;;;1.45;1.35;;;;;;;2.64;91.61;94817.75;5122886;27;20254;-76
2023/01/12 01:14:00;;;;;;;0.82;0.80;;;;;;;2.56;92.11;94815.66;5125692;27;20206;-76
2023/01/12 01:16:28;;;;;;;2.72;1.77;;;;;;;2.43;92.29;94821.56;5120645;27;20201;-77
2023/01/12 01:18:55;;;;;;;3.80;1.98;;;;;;;2.31;92.87;94821.06;5129340;27;20639;-78
2023/01/12 01:21:22;;;;;;;1.13;0.88;;;;;;;2.32;93.20;94812.78;5111436;28;20749;-78
2023/01/12 01:23:50;;;;;;;0.60;0.60;;;;;;;2.37;93.06;94817.28;5125331;27;20322;-77
2023/01/12 01:26:19;;;;;;;1.17;1.10;;;;;;;2.37;93.01;94822.63;5111569;28;20198;-77
2023/01/12 01:28:50;;;;;;;0.88;0.88;;;;;;;2.38;92.76;94816.22;5124767;27;20208;-77
2023/01/12 01:31:19;;;;;;;2.45;1.60;;;;;;;2.47;92.89;94819.94;5123526;27;20197;-76
2023/01/12 01:33:46;;;;;;;2.83;1.20;;;;;;;2.32;93.07;94820.00;5113039;27;20252;-76
2023/01/12 01:36:13;;;;;;;5.30;2.03;;;;;;;2.35;93.35;94830.13;5123886;27;20205;-77
2023/01/12 01:38:40;;;;;;;2.75;1.95;;;;;;;2.32;93.07;94836.03;5126526;27;20209;-77
2023/01/12 01:41:15;;;;;;;3.42;1.55;;;;;;;2.28;93.27;94840.31;5105696;27;20241;-76
2023/01/12 01:43:51;;;;;;;1.65;1.05;;;;;;;2.37;92.85;94827.97;5118200;27;20220;-77
2023/01/12 01:46:27;;;;;;;0.95;0.90;;;;;;;2.43;93.21;94842.94;5131257;27;20204;-77
2023/01/12 01:48:54;;;;;;;1.80;1.15;;;;;;;2.34;93.25;94840.00;5120375;27;20192;-77
2023/01/12 01:51:22;;;;;;;2.70;1.52;;;;;;;2.37;93.20;94841.34;5131227;27;20197;-77
2023/01/12 01:53:50;;;;;;;1.73;1.27;;;;;;;2.36;93.44;94842.41;5131559;27;20292;-78
2023/01/12 01:56:22;;;;;;;3.90;2.30;;;;;;;2.44;93.11;94845.34;5128195;27;20266;-78
2023/01/12 01:58:52;;;;;;;3.92;2.08;;;;;;;2.42;93.24;94836.00;5122129;27;20193;-77
2023/01/12 02:01:19;;;;;;;1.83;1.45;;;;;;;2.47;93.02;94849.34;5117926;27;20249;-77
2023/01/12 02:03:46;;;;;;;2.28;1.35;;;;;;;2.49;92.54;94844.53;5119654;27;20237;-77
2023/01/12 02:06:14;;;;;;;3.47;1.58;;;;;;;2.56;92.45;94845.06;5125108;27;20202;-78
2023/01/12 02:08:46;;;;;;;1.02;0.82;;;;;;;2.63;91.83;94837.53;5122983;27;20205;-79
2023/01/12 02:16:48;;;;;;;1.27;0.90;;;;;;;2.42;91.99;94836.00;5121428;27;20697;-76
2023/01/12 02:19:32;;;;;;;1.42;0.80;;;;;;;2.47;92.64;94834.09;5111717;28;20792;-77
2023/01/12 02:22:34;;;;;;;1.85;1.02;;;;;;;2.37;92.83;94836.00;5124478;27;20745;-76
2023/01/12 02:25:19;;;;;;;2.45;1.55;;;;;;;2.37;93.14;94833.34;5123253;27;20674;-78
2023/01/12 02:28:10;;;;;;;4.18;1.35;;;;;;;2.54;93.00;94844.53;5119311;27;20197;-78
2023/01/12 02:30:58;;;;;;;1.38;1.15;;;;;;;2.45;92.69;94841.63;5116761;27;20545;-77
2023/01/12 02:33:39;;;;;;;2.50;1.77;;;;;;;2.53;92.49;94831.41;5131142;27;20193;-77
2023/01/12 02:36:15;;;;;;;3.17;1.70;;;;;;;2.61;92.01;94828.19;5120141;27;20583;-77
2023/01/12 02:38:48;;;;;;;0.80;0.80;;;;;;;2.47;92.37;94833.28;5123848;27;20189;-77
2023/01/12 02:42:39;;;;;;;2.10;1.40;;;;;;;2.51;92.34;94837.03;5123210;27;20193;-77
2023/01/12 02:44:23;;;;;;;4.45;1.20;;;;;;;2.67;92.11;94833.25;5119656;27;20228;-77
2023/01/12 02:46:52;;;;;;;3.28;1.90;;;;;;;2.52;92.39;94835.16;5130671;27;20287;-77
2023/01/12 02:49:24;;;;;;;3.92;1.80;;;;;;;2.45;92.72;94835.47;5130198;27;20691;-77
2023/01/12 02:51:55;;;;;;;2.67;1.52;;;;;;;2.42;93.09;94830.66;5130823;27;20188;-77
2023/01/12 02:54:25;;;;;;;3.70;1.52;;;;;;;2.31;93.15;94835.22;5117076;27;20198;-77
2023/01/12 02:56:54;;;;;;;0.85;0.80;;;;;;;2.16;93.55;94837.13;5120575;27;20972;-77
2023/01/12 02:59:24;;;;;;;4.80;1.60;;;;;;;2.18;93.87;94835.00;5112357;28;20208;-78
2023/01/12 03:01:57;;;;;;;1.83;1.30;;;;;;;2.22;94.35;94825.34;5120487;27;20201;-78
2023/01/12 03:04:26;;;;;;;2.35;1.60;;;;;;;2.16;94.03;94832.59;5114725;28;20227;-78
2023/01/12 03:07:21;;;;;;;1.45;0.90;;;;;;;2.17;94.53;94828.03;5118717;28;20247;-78
2023/01/12 03:09:52;;;;;;;3.85;2.13;;;;;;;2.11;94.80;94820.03;5119144;28;20205;-77
2023/01/12 03:12:23;;;;;;;3.35;1.52;;;;;;;2.18;94.60;94825.09;5113414;28;20250;-78
2023/01/12 03:14:53;;;;;;;2.80;1.48;;;;;;;2.08;94.93;94820.56;5120479;28;20252;-76
2023/01/12 03:17:29;;;;;;;4.88;1.13;;;;;;;2.18;94.70;94832.31;5112785;28;20202;-78
2023/01/12 03:20:00;;;;;;;2.05;1.65;;;;;;;2.12;94.94;94824.31;5122524;28;20235;-78
2023/01/12 03:22:29;;;;;;;1.90;1.10;;;;;;;2.08;94.71;94820.56;5110036;28;20190;-77
2023/01/12 03:25:01;;;;;;;3.55;1.40;;;;;;;2.20;94.66;94819.47;5123024;27;20247;-78
2023/01/12 03:27:33;;;;;;;2.25;1.20;;;;;;;2.14;94.95;94818.69;5117181;28;20193;-77
2023/01/12 03:30:02;;;;;;;2.25;1.63;;;;;;;2.03;95.34;94823.25;5116253;28;20201;-77
2023/01/12 03:32:30;;;;;;;1.23;1.05;;;;;;;2.04;95.68;94830.19;5121449;28;20205;-75
2023/01/12 03:34:58;;;;;;;3.17;1.63;;;;;;;2.05;95.38;94826.44;5123287;28;20197;-75
2023/01/12 03:37:29;;;;;;;2.75;1.17;;;;;;;2.17;95.42;94822.69;5118796;28;20624;-78
2023/01/12 03:40:01;;;;;;;1.38;1.08;;;;;;;2.11;95.25;94821.91;5118211;27;20685;-76
2023/01/12 03:42:36;;;;;;;1.45;1.02;;;;;;;2.12;95.52;94821.63;5123602;27;20193;-77
2023/01/12 03:45:16;;;;;;;0.90;0.73;;;;;;;2.10;95.47;94821.09;5127355;27;20218;-77
2023/01/12 03:47:44;;;;;;;5.28;2.35;;;;;;;2.11;95.49;94814.69;5127642;27;20269;-76
2023/01/12 03:50:16;;;;;;;1.05;0.95;;;;;;;2.19;95.33;94818.66;5121138;27;20209;-76
2023/01/12 03:52:45;;;;;;;1.77;0.88;;;;;;;2.14;95.43;94819.50;5133023;27;20242;-78
2023/01/12 03:55:15;;;;;;;0.65;0.60;;;;;;;2.15;95.79;94814.94;5122697;27;20200;-78
2023/01/12 03:57:44;;;;;;;3.70;1.92;;;;;;;2.13;95.91;94812.53;5129649;27;20320;-78
2023/01/12 04:00:14;;;;;;;1.35;1.25;;;;;;;2.22;95.80;94809.31;5133338;27;20193;-78
2023/01/12 04:02:44;;;;;;;2.38;1.55;;;;;;;2.20;95.47;94811.44;5126229;27;20197;-77
2023/01/12 04:05:13;;;;;;;1.33;1.15;;;;;;;2.24;95.63;94801.81;5123113;27;20630;-77
2023/01/12 04:07:40;;;;;;;0.63;0.63;;;;;;;2.21;95.58;94802.34;5119014;27;20206;-77
2023/01/12 04:10:08;;;;;;;3.95;1.35;;;;;;;2.28;95.83;94814.38;5124500;27;20212;-78
2023/01/12 04:12:35;;;;;;;0.65;0.43;;;;;;;2.23;95.68;94816.25;5127087;27;20190;-79
2023/01/12 04:15:01;;;;;;;2.95;1.20;;;;;;;2.17;95.52;94798.66;5118842;27;20202;-77
2023/01/12 04:17:28;;;;;;;1.65;1.30;;;;;;;2.16;96.52;94808.53;5121217;27;20273;-78
2023/01/12 04:19:56;;;;;;;0.30;0.30;;;;;;;2.07;96.43;94802.91;5129850;27;20293;-77
2023/01/12 04:25:08;;;;;;;3.35;1.33;;;;;;;2.13;96.73;94801.84;5132443;27;20710;-76
2023/01/12 04:27:35;;;;;;;2.67;1.50;;;;;;;2.04;97.13;94803.47;5118147;27;20247;-77
2023/01/12 04:30:08;;;;;;;2.75;1.40;;;;;;;2.06;97.44;94812.00;5126782;27;20204;-79
2023/01/12 04:32:34;;;;;;;4.82;2.08;;;;;;;2.18;97.13;94819.75;5121765;27;20193;-78
2023/01/12 04:35:05;;;;;;;1.73;1.05;;;;;;;2.19;96.66;94816.00;5126180;27;20254;-78
2023/01/12 04:37:32;;;;;;;7.60;1.88;;;;;;;2.22;96.87;94820.81;5115726;27;20476;-78
2023/01/12 04:40:00;;;;;;;3.45;2.28;;;;;;;2.29;96.60;94820.53;5130514;27;20307;-78
2023/01/12 04:45:12;;;;;;;1.40;1.23;;;;;;;2.40;95.35;94822.09;5119462;27;20224;-76
2023/01/12 04:47:39;;;;;;;6.18;1.92;;;;;;;2.32;95.72;94825.34;5133173;27;20254;-76
2023/01/12 04:50:08;;;;;;;2.97;2.25;;;;;;;2.22;96.20;94823.47;5132914;27;20233;-76
2023/01/12 04:52:35;;;;;;;3.78;1.67;;;;;;;2.20;96.46;94827.47;5132684;27;20617;-77
2023/01/12 04:55:02;;;;;;;4.65;2.08;;;;;;;2.25;96.40;94835.50;5122749;27;20289;-77
2023/01/12 04:57:28;;;;;;;3.83;3.25;;;;;;;2.36;96.19;94834.41;5117333;27;20224;-77
2023/01/12 04:59:56;;;;;;;2.13;1.50;;;;;;;2.30;96.00;94838.97;5129126;27;20249;-78
2023/01/12 05:02:23;;;;;;;2.05;1.52;;;;;;;2.35;96.11;94835.47;5130775;27;20257;-78
2023/01/12 05:04:50;;;;;;;3.40;1.30;;;;;;;2.32;96.14;94834.16;5126895;27;20278;-77
2023/01/12 05:07:18;;;;;;;1.63;1.15;;;;;;;2.27;96.21;94833.34;5124832;27;20204;-79
2023/01/12 05:12:29;;;;;;;3.40;2.22;;;;;;;2.33;96.41;94842.94;5113839;27;20270;-77
2023/01/12 05:14:55;;;;;;;2.47;1.90;;;;;;;2.38;96.35;94853.66;5119811;27;20190;-77
2023/01/12 05:17:22;;;;;;;1.48;1.30;;;;;;;2.40;96.03;94851.50;5121380;27;20205;-77
2023/01/12 05:19:49;;;;;;;2.67;1.92;;;;;;;2.36;96.04;94847.75;5124025;27;20224;-78
2023/01/12 05:22:18;;;;;;;1.38;0.93;;;;;;;2.37;96.43;94849.38;5127260;27;20277;-78
2023/01/12 05:24:44;;;;;;;1.10;1.00;;;;;;;2.45;95.86;94857.66;5111533;28;20282;-78
2023/01/12 05:27:11;;;;;;;2.78;1.35;;;;;;;2.41;96.19;94856.59;5125345;27;20201;-78
2023/01/12 05:29:38;;;;;;;1.60;1.33;;;;;;;2.42;96.49;94857.38;5123590;27;20671;-78
2023/01/12 05:32:05;;;;;;;1.30;1.08;;;;;;;2.40;95.87;94854.97;5117534;27;20284;-78
2023/01/12 05:34:31;;;;;;;1.15;0.95;;;;;;;2.48;95.87;94858.97;5119558;27;20217;-78
2023/01/12 05:36:58;;;;;;;3.08;1.90;;;;;;;2.55;95.76;94861.38;5125405;27;20209;-78
2023/01/12 05:39:31;;;;;;;1.50;1.00;;;;;;;2.49;95.60;94865.91;5112424;28;20202;-77
2023/01/12 05:44:42;;;;;;;3.03;1.85;;;;;;;2.41;96.40;94877.16;5126972;27;20216;-76
2023/01/12 05:47:09;;;;;;;1.27;1.17;;;;;;;2.41;96.34;94882.50;5119081;27;20669;-78
2023/01/12 05:49:35;;;;;;;9.52;2.75;;;;;;;2.42;96.60;94892.13;5127861;27;20201;-78
2023/01/12 05:52:02;;;;;;;3.08;1.17;;;;;;;2.40;96.66;94894.28;5132269;27;20273;-79
2023/01/12 05:54:35;;;;;;;0.63;0.43;;;;;;;2.43;96.22;94891.88;5132420;27;20617;-78
2023/01/12 05:57:09;;;;;;;2.42;1.75;;;;;;;2.42;96.53;94889.47;5126908;27;20272;-80
2023/01/12 05:59:36;;;;;;;1.75;1.17;;;;;;;2.48;96.54;94894.53;5118407;27;20189;-80
2023/01/12 06:02:03;;;;;;;1.70;1.13;;;;;;;2.45;96.24;94883.59;5120240;27;20198;-79
2023/01/12 06:04:30;;;;;;;8.80;2.40;;;;;;;2.48;96.44;94893.72;5124603;27;20233;-79
2023/01/12 06:07:00;;;;;;;0.90;0.77;;;;;;;2.47;96.57;94889.44;5123850;27;20200;-79
2023/01/12 06:09:28;;;;;;;5.05;2.38;;;;;;;2.50;96.42;94886.22;5118382;27;20640;-80
2023/01/12 06:14:40;;;;;;;2.95;1.38;;;;;;;2.57;95.59;94892.13;5112405;28;20615;-78
2023/01/12 06:17:09;;;;;;;2.78;1.70;;;;;;;2.56;95.74;94889.72;5125774;27;20621;-79
2023/01/12 06:19:36;;;;;;;2.70;1.55;;;;;;;2.65;95.45;94886.19;5121005;27;20570;-80
2023/01/12 06:22:03;;;;;;;2.35;1.33;;;;;;;2.62;95.32;94891.28;5119874;27;20194;-77
2023/01/12 06:24:30;;;;;;;2.72;1.23;;;;;;;2.49;95.74;94887.31;5144620;27;20225;-78
2023/01/12 06:26:58;;;;;;;2.20;0.90;;;;;;;2.56;95.96;94884.38;5132941;27;20181;-79
2023/01/12 06:29:25;;;;;;;2.50;1.50;;;;;;;2.53;95.87;94869.66;5145535;27;20269;-78
2023/01/12 06:31:52;;;;;;;2.30;1.40;;;;;;;2.53;96.05;94885.69;5116995;27;20656;-79
2023/01/12 06:34:19;;;;;;;2.47;1.42;;;;;;;2.42;96.42;94874.22;5121143;27;20264;-79
2023/01/12 06:36:46;;;;;;;2.00;1.77;;;;;;;2.48;96.77;94888.38;5117794;27;20728;-79
2023/01/12 06:39:13;;;;;;;1.63;1.52;;;;;;;2.47;96.74;94894.78;5133641;27;20671;-78
2023/01/12 06:44:27;;;;;;;2.83;2.17;;;;;;;2.53;97.08;94884.91;5132497;27;20254;-81
2023/01/12 06:46:54;;;;;;;2.45;1.50;;;;;;;2.53;96.59;94885.69;5118105;27;20201;-78
2023/01/12 06:49:21;;;;;;;3.25;2.05;;;;;;;2.47;96.97;94892.13;5132291;27;20201;-79
2023/01/12 06:51:50;;;;;;;2.05;1.15;;;;;;;2.40;97.22;94902.28;5131557;27;20204;-79
2023/01/12 06:54:21;;;;;;;1.02;0.93;;;;;;;2.39;97.44;94890.81;5131519;27;20668;-80
2023/01/12 06:56:48;;;;;;;2.40;0.95;;;;;;;2.53;97.13;94899.06;5115011;27;20277;-80
2023/01/12 06:59:15;;;;;;;1.23;0.90;;;;;;;2.48;96.94;94904.41;5116751;27;20611;-79
2023/01/12 07:01:48;;;;;;;4.63;2.22;;;;;;;2.52;97.10;94900.13;5119804;27;20310;-79
2023/01/12 07:04:19;;;;;;;1.45;0.98;;;;;;;2.59;96.61;94911.38;5118670;27;20212;-78
2023/01/12 07:06:47;;;;;;;2.67;1.05;;;;;;;2.54;96.68;94906.00;5120340;27;20747;-79
2023/01/12 07:09:13;;;;;;;0.95;0.80;;;;;;;2.68;96.21;94914.28;5124018;28;20198;-80
2023/01/12 07:11:40;;;;;;;7.00;2.25;;;;;;;2.63;96.26;94917.75;5110623;28;20270;-78
2023/01/12 07:14:07;;;;;;;2.00;1.35;;;;;;;2.52;96.34;94915.38;5124504;27;20712;-79
2023/01/12 07:16:33;;;;;;;4.43;1.67;;;;;;;2.51;96.67;94914.56;5126076;27;20197;-79
2023/01/12 07:19:02;;;;;;;1.85;1.40;;;;;;;2.72;96.09;94900.09;5117293;27;20201;-79
2023/01/12 07:21:28;;;;;;;1.65;1.23;;;;;;;2.72;96.13;94910.81;5126242;27;20289;-78
2023/01/12 07:23:55;;;;;;;2.90;1.65;;;;;;;2.68;95.91;94914.28;5121223;27;20277;-78
2023/01/12 07:26:22;;;;;;;0.77;0.77;;;;;;;2.71;96.21;94909.19;5122931;27;20353;-80
2023/01/12 07:28:49;;;;;;;3.45;1.63;;;;;;;2.73;95.70;94906.25;5128377;27;20250;-80
2023/01/12 07:31:17;;;;;;;1.17;0.80;;;;;;;2.69;96.08;94913.22;5127013;27;20604;-79
2023/01/12 07:33:44;;;;;;;3.95;1.20;;;;;;;2.71;95.71;94911.88;5121253;27;20256;-80
2023/01/12 07:36:13;;;;;;;2.97;1.83;;;;;;;2.83;95.74;94907.03;5121979;27;20273;-79
2023/01/12 07:38:41;;;;;;;3.38;1.63;;;;;;;2.83;95.82;94917.72;5133836;27;20232;-80
2023/01/12 07:42:22;;;;;;;0.77;0.77;;;;;;;3.04;94.84;94901.59;5121182;27;20201;-80
2023/01/12 07:43:55;;;;;;;0.65;0.47;;;;;;;3.01;94.49;94913.63;5123649;27;20196;-77
2023/01/12 07:46:22;;;;;;;2.30;1.58;;;;;;;3.04;94.75;94912.28;5121347;27;20230;-78
2023/01/12 07:48:48;;;;;;;1.63;1.48;;;;;;;2.93;94.98;94905.38;5124997;27;20247;-80
2023/01/12 07:51:17;;;;;;;7.88;3.30;;;;;;;2.89;94.67;94904.31;5116881;27;20204;-77
2023/01/12 07:53:44;;;;;;;1.95;1.35;;;;;;;3.07;94.89;94911.75;5124524;27;20581;-79
2023/01/12 07:56:14;;;;;;;3.67;1.52;;;;;;;3.17;93.87;94911.72;5127897;27;20226;-79
2023/01/12 07:58:41;;;;;;;2.35;1.38;;;;;;;3.38;93.58;94902.53;5122877;27;20193;-79
2023/01/12 08:01:08;;;;;;;4.28;1.85;;;;;;;3.44;92.86;94911.31;5118095;27;20696;-80
2023/01/12 08:03:35;;;;;;;0.70;0.70;;;;;;;3.57;92.28;94911.50;5134575;27;20560;-80
2023/01/12 08:06:02;;;;;;;2.47;1.38;;;;;;;3.53;91.53;94918.53;5122625;27;20220;-81
2023/01/12 08:08:30;;;;;;;2.78;1.50;;;;;;;3.60;91.27;94915.53;5134480;27;20205;-79
2023/01/12 08:11:01;;;;;;;1.08;0.93;;;;;;;3.37;91.80;94911.63;5120654;27;20201;-79
2023/01/12 08:13:28;;;;;;;6.65;3.17;;;;;;;3.41;91.50;94895.81;5121756;27;20201;-79
2023/01/12 08:15:55;;;;;;;1.75;1.52;;;;;;;3.61;90.67;94905.59;5133036;27;20212;-81
2023/01/12 08:18:25;;;;;;;7.30;2.38;;;;;;;3.85;90.20;94911.88;5121327;27;20205;-80
2023/01/12 08:20:53;;;;;;;2.28;1.38;;;;;;;3.98;90.01;94900.53;5127535;27;20294;-80
2023/01/12 08:23:24;;;;;;;1.67;1.30;;;;;;;3.71;90.37;94905.53;5127731;27;20221;-80
2023/01/12 08:25:58;;;;;;;2.83;1.25;;;;;;;3.55;90.68;94902.94;5113089;28;20619;-80
2023/01/12 08:28:28;;;;;;;5.30;2.45;;;;;;;3.79;90.45;94900.41;5126975;27;20193;-79
2023/01/12 08:30:55;;;;;;;3.15;1.63;;;;;;;4.03;89.14;94897.81;5113756;28;20252;-79
2023/01/12 08:33:22;;;;;;;2.13;1.48;;;;;;;4.05;88.86;94895.66;5127320;27;20209;-79
2023/01/12 08:35:49;;;;;;;1.55;1.20;;;;;;;3.93;88.76;94893.34;5122707;27;20664;-79
2023/01/12 08:38:18;;;;;;;1.40;1.30;;;;;;;3.86;89.41;94898.22;5119980;27;20290;-80
2023/01/12 08:46:15;;;;;;;2.50;1.38;;;;;;;4.07;88.62;94898.88;5119737;27;20366;-79
2023/01/12 08:48:41;;;;;;;1.40;1.30;;;;;;;4.08;88.84;94899.69;5133931;27;20193;-80
2023/01/12 08:51:09;;;;;;;1.55;1.15;;;;;;;4.08;88.43;94900.47;5133467;27;20200;-79
2023/01/12 08:53:36;;;;;;;1.55;1.00;;;;;;;4.27;88.14;94898.69;5124924;27;20206;-79
2023/01/12 08:56:03;;;;;;;1.73;1.00;;;;;;;4.05;88.21;94895.66;5126197;27;20726;-80
2023/01/12 08:58:32;;;;;;;0.85;0.85;;;;;;;3.81;88.40;94910.84;5121846;27;20194;-79
2023/01/12 09:01:06;;;;;;;1.85;1.08;;;;;;;3.83;88.82;94903.31;5126734;27;20196;-80
2023/01/12 09:03:33;;;;;;;2.45;1.55;;;;;;;4.10;88.35;94909.00;5125327;27;20279;-79
2023/01/12 09:06:00;;;;;;;2.45;1.30;;;;;;;4.07;88.00;94898.06;5119508;27;20708;-79
2023/01/12 09:08:27;;;;;;;1.10;1.00;;;;;;;4.23;87.24;94897.69;5122512;27;20215;-80
2023/01/12 09:10:53;;;;;;;3.45;1.10;;;;;;;3.90;88.28;94904.63;5127119;27;20210;-80
2023/01/12 09:13:20;;;;;;;4.82;1.27;;;;;;;3.91;88.98;94911.59;5125966;27;20265;-80
2023/01/12 09:15:48;;;;;;;4.93;2.03;;;;;;;3.91;89.04;94911.59;5120702;27;20664;-81
2023/01/12 09:18:17;;;;;;;1.10;0.93;;;;;;;3.72;88.49;94880.34;5123253;27;20201;-79
2023/01/12 09:20:46;;;;;;;0.85;0.85;;;;;;;3.60;89.61;94920.06;5128056;27;20234;-78
2023/01/12 09:23:13;;;;;;;3.45;1.63;;;;;;;3.48;89.52;94915.06;5125351;27;20217;-78
2023/01/12 09:25:39;;;;;;;4.03;1.65;;;;;;;3.46;90.09;94909.97;5133888;27;20240;-79
2023/01/12 09:28:06;;;;;;;0.95;0.95;;;;;;;3.57;89.01;94900.81;5121492;27;20240;-77
2023/01/12 09:30:33;;;;;;;1.50;1.30;;;;;;;3.61;88.76;94878.81;5118826;27;20205;-79
2023/01/12 09:33:01;;;;;;;2.70;1.67;;;;;;;3.95;88.42;94905.69;5133678;27;20204;-81
2023/01/12 09:35:28;;;;;;;0.77;0.77;;;;;;;3.98;88.02;94900.53;5119098;27;20276;-78
2023/01/12 09:37:54;;;;;;;5.45;2.50;;;;;;;3.98;87.68;94903.22;5118617;27;20255;-79
2023/01/12 09:40:21;;;;;;;2.33;1.65;;;;;;;3.92;88.20;94899.00;5125068;27;20254;-79
2023/01/12 09:48:22;;;;;;;2.47;1.67;;;;;;;4.04;88.00;94891.38;5118390;27;20728;-79
2023/01/12 09:50:54;;;;;;;3.70;1.95;;;;;;;4.28;86.87;94889.56;5132279;27;20197;-79
2023/01/12 09:53:26;;;;;;;2.30;1.75;;;;;;;4.37;86.05;94891.66;5111714;28;20243;-80
2023/01/12 09:56:01;;;;;;;4.60;1.77;;;;;;;4.33;85.21;94885.25;5126021;27;20221;-79
2023/01/12 09:58:50;;;;;;;1.48;1.38;;;;;;;4.50;85.69;94885.66;5121229;27;20635;-80
2023/01/12 10:01:20;;;;;;;3.30;1.25;;;;;;;4.64;84.46;94886.59;5125274;27;20242;-78
2023/01/12 10:03:48;;;;;;;1.20;0.90;;;;;;;4.57;84.11;94880.72;5111182;28;20193;-78
2023/01/12 10:06:17;;;;;;;1.80;1.05;;;;;;;4.58;83.30;94882.34;5125514;27;20255;-80
2023/01/12 10:08:49;;;;;;;1.27;0.88;;;;;;;4.75;83.42;94882.72;5111629;28;20221;-82
2023/01/12 10:11:21;;;;;;;1.33;1.05;;;;;;;4.84;82.67;94886.34;5117843;27;20204;-80
2023/01/12 10:14:40;;;;;;;2.60;1.02;;;;;;;4.76;81.88;94884.31;5117865;27;20676;-79
2023/01/12 10:17:17;;;;;;;0.70;0.70;;;;;;;4.80;81.34;94898.72;5117776;27;20251;-81
2023/01/12 10:19:53;;;;;;;0.73;0.70;;;;;;;4.92;81.54;94888.41;5121208;27;20202;-80
2023/01/12 10:22:37;;;;;;;0.60;0.60;;;;;;;5.18;80.69;94890.81;5115308;27;20281;-80
2023/01/12 10:25:16;;;;;;;1.55;1.40;;;;;;;5.04;81.26;94879.19;5118377;27;20225;-80
2023/01/12 10:27:49;;;;;;;1.95;1.02;;;;;;;5.09;80.81;94874.53;5120516;27;20185;-79
2023/01/12 10:30:19;;;;;;;1.48;1.20;;;;;;;4.84;80.96;94878.31;5117386;27;20200;-79
2023/01/12 10:32:46;;;;;;;0.50;0.50;;;;;;;4.88;80.87;94883.91;5121004;27;20202;-79
2023/01/12 10:35:17;;;;;;;2.90;1.00;;;;;;;4.86;81.05;94872.66;5126079;27;20661;-80
2023/01/12 10:37:47;;;;;;;2.67;0.63;;;;;;;5.18;80.66;94859.41;5114300;28;20193;-81
2023/01/12 10:40:24;;;;;;;1.40;1.00;;;;;;;5.28;79.17;94874.56;5117178;27;20201;-79
2023/01/12 10:43:21;;;;;;;0.75;0.73;;;;;;;5.10;80.20;94872.66;5133374;27;20279;-80
2023/01/12 10:46:06;;;;;;;2.17;0.60;;;;;;;4.84;81.26;94870.25;5122131;27;20231;-79
2023/01/12 10:48:33;;;;;;;3.22;0.95;;;;;;;4.67;82.24;94875.25;5117623;27;20195;-79
2023/01/12 10:51:03;;;;;;;0.98;0.70;;;;;;;5.16;82.16;94871.50;5131499;27;20204;-78
2023/01/12 10:53:36;;;;;;;0.65;0.63;;;;;;;4.67;81.78;94867.22;5123859;27;20652;-79
2023/01/12 10:56:13;;;;;;;0.32;0.32;;;;;;;4.55;82.63;94864.91;5124438;27;20273;-80
2023/01/12 10:58:43;;;;;;;0.93;0.80;;;;;;;4.39;83.26;94857.28;5120666;27;20197;-80
2023/01/12 11:01:13;;;;;;;1.45;0.95;;;;;;;4.38;82.97;94866.44;5112524;28;20202;-79
2023/01/12 11:03:41;;;;;;;1.55;1.27;;;;;;;4.25;84.03;94860.63;5122582;27;20295;-79
2023/01/12 11:06:25;;;;;;;2.78;0.90;;;;;;;4.65;83.15;94866.69;5117401;27;20231;-79
2023/01/12 11:08:53;;;;;;;1.05;0.80;;;;;;;4.83;82.46;94860.59;5129936;27;20208;-77
2023/01/12 11:11:25;;;;;;;0.98;0.90;;;;;;;4.75;81.90;94858.56;5119177;28;20217;-76
2023/01/12 11:13:56;;;;;;;0.80;0.80;;;;;;;4.82;82.28;94856.31;5117305;28;20644;-79
2023/01/12 11:16:25;;;;;;;0.52;0.52;;;;;;;4.63;82.76;94850.09;5113230;28;20258;-79
2023/01/12 11:19:12;;;;;;;1.25;0.80;;;;;;;4.65;83.55;94851.41;5117486;28;20200;-79
2023/01/12 11:21:45;;;;;;;0.77;0.70;;;;;;;4.88;81.99;94849.81;5130823;27;20221;-78
2023/01/12 11:24:18;;;;;;;1.88;1.33;;;;;;;4.80;82.95;94846.94;5118379;28;20606;-81
2023/01/12 11:26:50;;;;;;;1.30;0.98;;;;;;;5.15;81.63;94848.44;5117791;28;20221;-82
2023/01/12 11:29:34;;;;;;;0.85;0.85;;;;;;;5.02;81.28;94839.19;5122005;28;20201;-81
2023/01/12 11:32:14;;;;;;;0.70;0.70;;;;;;;5.10;82.27;94840.44;5130391;28;20276;-79
2023/01/12 11:34:54;;;;;;;1.92;1.25;;;;;;;4.94;81.46;94837.91;5117119;28;20212;-77
2023/01/12 11:37:23;;;;;;;1.13;1.02;;;;;;;4.76;82.33;94837.88;5131065;28;20203;-79
2023/01/12 11:39:52;;;;;;;2.55;1.75;;;;;;;4.96;81.05;94843.00;5117530;28;20616;-76
2023/01/12 11:45:15;;;;;;;1.83;1.33;;;;;;;4.86;82.08;94843.13;5121160;28;20224;-78
2023/01/12 11:47:50;;;;;;;1.67;1.10;;;;;;;4.96;81.89;94826.91;5107390;28;20269;-79
2023/01/12 11:50:23;;;;;;;1.05;0.80;;;;;;;5.09;81.16;94833.47;5130563;28;20197;-79
2023/01/12 11:52:53;;;;;;;1.13;0.88;;;;;;;5.56;80.18;94838.75;5128545;28;20605;-80
2023/01/12 11:55:32;;;;;;;1.35;1.25;;;;;;;5.38;79.85;94825.28;5120136;28;20217;-80
2023/01/12 11:58:09;;;;;;;1.27;1.05;;;;;;;5.31;80.31;94831.84;5126305;28;20189;-85
2023/01/12 12:00:58;;;;;;;2.83;0.93;;;;;;;5.58;79.29;94822.31;5127029;27;20245;-76
2023/01/12 12:03:38;;;;;;;1.80;1.52;;;;;;;5.45;79.25;94815.78;5120752;27;20189;-82
2023/01/12 12:06:17;;;;;;;2.10;1.42;;;;;;;5.45;78.82;94815.78;5129405;27;20209;-79
2023/01/12 12:08:56;;;;;;;1.25;1.15;;;;;;;5.80;78.59;94827.09;5121805;27;20652;-77
2023/01/12 12:11:34;;;;;;;7.60;2.85;;;;;;;5.79;78.35;94820.13;5121509;27;20682;-79
2023/01/12 12:14:13;;;;;;;2.50;1.65;;;;;;;5.87;78.25;94812.22;5130067;27;20529;-79
2023/01/12 12:16:51;;;;;;;1.60;1.45;;;;;;;5.82;77.79;94819.53;5125205;27;20597;-76
2023/01/12 12:19:39;;;;;;;1.00;0.90;;;;;;;5.69;78.05;94819.19;5132019;27;20272;-76
2023/01/12 12:22:18;;;;;;;2.65;1.75;;;;;;;5.60;78.71;94809.41;5130334;27;20724;-79
2023/01/12 12:25:05;;;;;;;2.50;1.17;;;;;;;5.88;78.18;94818.34;5129180;27;20193;-76
2023/01/12 12:27:46;;;;;;;1.02;0.93;;;;;;;5.77;78.31;94809.66;5121928;27;20583;-78
2023/01/12 12:30:31;;;;;;;1.55;1.15;;;;;;;5.91;78.51;94828.56;5118344;27;20197;-79
2023/01/12 12:33:08;;;;;;;2.42;1.50;;;;;;;5.47;79.11;94815.47;5121834;27;20225;-75
2023/01/12 12:35:52;;;;;;;2.35;1.60;;;;;;;4.98;81.28;94812.13;5133468;27;20193;-78
2023/01/12 12:38:33;;;;;;;1.83;1.17;;;;;;;4.94;82.16;94824.50;5117852;27;20198;-80
2023/01/12 12:47:03;;;;;;;2.88;2.17;;;;;;;5.04;82.90;94820.13;5128889;27;20212;-79